Shinsei Maru — JD2188 — position and weather

sailwx.info

Track history (hours):
 
Tides and Currents Weather Stations Pressure Air Temp Water Temp Dewpoint Dewpoint Depression Visibility Wind Speed Wind Dir Waves Ship Positions

Shinsei Maru

Last reported at 2016-Jul-28 08:26 UTC. Time now 2016-Jul-29 17:52 UTC.
Position N 33°48' E 134°48'.

Length 104 m; draft 6.5 m.

Type: Tanker. MMSI: 431301775.

Date/timePositionNaut miles runAvg speedWind from/ knotsBaromVisibWave heightAir tempDewpointWater temp
2016-Jul-28 08:26N 33°48' E 134°48'1212.4
2016-Jul-28 07:29N 33°58' E 134°55'1111.8
2016-Jul-28 06:33N 34°06' E 135°03'3 2.9
2016-Jul-28 05:24N 34°07' E 135°07'2 0.2
2016-Jul-27 20:31N 34°09' E 135°07'0 0.1
2016-Jul-27 19:31N 34°09' E 135°08'0 0.0
2016-Jul-27 18:31N 34°09' E 135°08'0 0.0
2016-Jul-27 17:28N 34°09' E 135°08'0 0.0
2016-Jul-27 16:31N 34°09' E 135°08'0 0.0
2016-Jul-27 15:31N 34°09' E 135°08'0 0.0
2016-Jul-27 14:28N 34°09' E 135°08'0 0.1
2016-Jul-27 13:31N 34°09' E 135°08'0 0.0
2016-Jul-27 12:31N 34°09' E 135°08'0 0.0
2016-Jul-27 11:28N 34°09' E 135°08'0 0.0
2016-Jul-27 10:31N 34°09' E 135°08'0 0.0
2016-Jul-27 09:31N 34°09' E 135°08'0 0.0
2016-Jul-27 08:31N 34°09' E 135°08'0 0.0
2016-Jul-27 07:31N 34°09' E 135°08'0 0.0
2016-Jul-27 06:31N 34°09' E 135°08'0 0.0
2016-Jul-27 05:31N 34°09' E 135°08'8 8.7
2016-Jul-27 04:33N 34°02' E 135°02'1 0.0
2016-Jul-25 07:30N 34°01' E 135°02'8 1.5
2016-Jul-25 02:32N 34°07' E 135°07'0 0.0
2016-Jul-25 01:32N 34°07' E 135°07'0 0.0
2016-Jul-25 00:32N 34°07' E 135°07'0 0.4
2016-Jul-24 23:29N 34°08' E 135°07'5 5.8
2016-Jul-24 22:32N 34°13' E 135°09'0 0.0
2016-Jul-24 21:32N 34°13' E 135°09'0 0.0
2016-Jul-24 20:32N 34°13' E 135°09'0 0.0
2016-Jul-24 19:29N 34°13' E 135°09'0 0.0
2016-Jul-24 18:29N 34°13' E 135°09'0 0.0
2016-Jul-24 17:32N 34°13' E 135°09'0 0.0
2016-Jul-24 16:32N 34°13' E 135°09'0 0.0
2016-Jul-24 15:32N 34°13' E 135°09'0 0.0
2016-Jul-24 14:32N 34°13' E 135°09'0 0.0
2016-Jul-24 13:32N 34°13' E 135°09'0 0.0
2016-Jul-24 12:32N 34°13' E 135°09'0 0.0
2016-Jul-24 11:32N 34°13' E 135°09'0 0.0
2016-Jul-24 10:32N 34°13' E 135°09'0 0.0
2016-Jul-24 09:32N 34°13' E 135°09'0 0.0
2016-Jul-24 08:32N 34°13' E 135°09'0 0.0
2016-Jul-24 07:32N 34°13' E 135°09'0 0.0
2016-Jul-24 06:32N 34°13' E 135°09'0 0.0
2016-Jul-24 05:32N 34°13' E 135°09'0 0.0
2016-Jul-24 04:32N 34°13' E 135°09'0 0.0
2016-Jul-24 03:32N 34°13' E 135°09'0 0.0
2016-Jul-24 02:32N 34°13' E 135°09'0 0.0
2016-Jul-24 01:32N 34°13' E 135°09'0 0.0
2016-Jul-24 00:32N 34°13' E 135°09'0 0.0
2016-Jul-23 23:32N 34°13' E 135°09'2 2.0
2016-Jul-23 22:33N 34°12' E 135°06'1 0.6
2016-Jul-23 21:28N 34°12' E 135°06'0 0.1
2016-Jul-23 20:31N 34°12' E 135°06'0 0.0
2016-Jul-23 19:31N 34°12' E 135°06'241 6.2
2016-Jul-22 04:33N 35°27' E 139°45'2 1.6
2016-Jul-22 03:31N 35°29' E 139°46'2 2.4
2016-Jul-22 02:33N 35°31' E 139°46'0 0.0
2016-Jul-22 01:33N 35°31' E 139°46'0 0.0
2016-Jul-22 00:27N 35°31' E 139°46'0 0.0
2016-Jul-21 23:33N 35°31' E 139°46'0 0.0
2016-Jul-21 22:33N 35°31' E 139°46'0 0.0
2016-Jul-21 21:33N 35°31' E 139°46'4 4.4
2016-Jul-21 20:33N 35°28' E 139°42'5 5.4
2016-Jul-21 19:33N 35°29' E 139°49'0 0.0
2016-Jul-21 18:33N 35°29' E 139°49'0 0.0
2016-Jul-21 17:33N 35°29' E 139°49'0 0.0
2016-Jul-21 16:33N 35°29' E 139°49'0 0.0
2016-Jul-21 15:33N 35°29' E 139°49'0 0.0
2016-Jul-21 14:33N 35°29' E 139°49'0 0.0
2016-Jul-21 13:33N 35°29' E 139°49'3 3.4
2016-Jul-21 12:33N 35°30' E 139°53'7 5.5
2016-Jul-21 11:20N 35°29' E 140°01'0 0.0
2016-Jul-21 10:32N 35°29' E 140°01'0 0.0
2016-Jul-21 09:26N 35°29' E 140°01'0 0.0
2016-Jul-21 08:14N 35°29' E 140°01'0 0.0
2016-Jul-21 07:26N 35°29' E 140°01'0 0.0
2016-Jul-21 06:32N 35°29' E 140°01'0 0.0
2016-Jul-21 05:32N 35°29' E 140°01'5 4.9
2016-Jul-21 04:32N 35°29' E 139°55'0 0.0
2016-Jul-21 03:32N 35°29' E 139°55'0 0.0
2016-Jul-21 02:32N 35°29' E 139°55'0 0.0
2016-Jul-21 01:32N 35°29' E 139°55'0 0.0
2016-Jul-21 00:32N 35°29' E 139°55'0 0.0
2016-Jul-20 23:29N 35°29' E 139°55'0 0.0
2016-Jul-20 22:32N 35°29' E 139°55'0 0.0
2016-Jul-20 21:32N 35°29' E 139°55'0 0.0
2016-Jul-20 20:32N 35°29' E 139°55'0 0.0
2016-Jul-20 19:32N 35°29' E 139°55'0 0.0
2016-Jul-20 18:32N 35°29' E 139°55'0 0.0
2016-Jul-20 17:29N 35°29' E 139°55'6 6.8
2016-Jul-20 16:34N 35°30' E 139°47'1 1.4
2016-Jul-20 15:33N 35°31' E 139°46'0 0.0
2016-Jul-20 14:33N 35°31' E 139°46'0 0.0
2016-Jul-20 13:33N 35°31' E 139°46'0 0.0
2016-Jul-20 12:33N 35°31' E 139°46'0 0.0
2016-Jul-20 11:33N 35°31' E 139°46'0 0.0
2016-Jul-20 10:33N 35°31' E 139°46'0 0.0
2016-Jul-20 09:33N 35°31' E 139°46'0 0.0
2016-Jul-20 08:33N 35°31' E 139°46'0 0.0
2016-Jul-20 07:27N 35°31' E 139°46'0 0.0
2016-Jul-20 06:33N 35°31' E 139°46'0 0.0
2016-Jul-20 05:33N 35°31' E 139°46'0 0.0
2016-Jul-20 04:33N 35°31' E 139°46'0 0.4
2016-Jul-20 03:33N 35°31' E 139°46'7 7.4
2016-Jul-20 02:34N 35°24' E 139°44'0 0.1
2016-Jul-20 01:33N 35°24' E 139°44'0 0.0
2016-Jul-20 00:31N 35°24' E 139°44'0 0.0
2016-Jul-19 23:28N 35°24' E 139°44'0 0.0
2016-Jul-19 22:31N 35°24' E 139°44'0 0.0
2016-Jul-19 21:31N 35°24' E 139°44'0 0.0
2016-Jul-19 20:31N 35°24' E 139°44'0 0.1
2016-Jul-19 19:31N 35°24' E 139°44'0 0.0
2016-Jul-19 18:31N 35°24' E 139°44'0 0.0
2016-Jul-19 17:31N 35°24' E 139°44'0 0.0
2016-Jul-19 16:31N 35°24' E 139°44'0 0.0
2016-Jul-19 15:31N 35°24' E 139°44'0 0.0
2016-Jul-19 14:31N 35°24' E 139°44'0 0.0
2016-Jul-19 13:31N 35°24' E 139°44'0 0.1
2016-Jul-19 12:31N 35°24' E 139°44'0 0.0
2016-Jul-19 11:31N 35°24' E 139°44'0 0.1
2016-Jul-19 10:33N 35°24' E 139°44'9 9.0
2016-Jul-19 09:33N 35°15' E 139°47'1313.1
2016-Jul-19 08:33N 35°03' E 139°40'23811.6
2016-Jul-18 12:09N 34°01' E 135°02'711.9
2016-Jul-18 11:33N 34°08' E 135°05'  
Track history (hours):
 
Tides and Currents Weather Stations Pressure Air Temp Water Temp Dewpoint Dewpoint Depression Visibility Wind Speed Wind Dir Waves Ship Positions

Shinsei Maru

Last reported at 2016-Jul-28 08:26 UTC. Time now 2016-Jul-29 17:52 UTC.
Position N 33°48' E 134°48'.

Length 104 m; draft 6.5 m.

Type: Tanker. MMSI: 431301775.

Date/timePositionNaut miles runAvg speedWind from/ knotsBaromVisibWave heightAir tempDewpointWater temp
2016-Jul-28 08:26N 33°48' E 134°48'1212.4
2016-Jul-28 07:29N 33°58' E 134°55'1111.8
2016-Jul-28 06:33N 34°06' E 135°03'3 2.9
2016-Jul-28 05:24N 34°07' E 135°07'2 0.2
2016-Jul-27 20:31N 34°09' E 135°07'0 0.1
2016-Jul-27 19:31N 34°09' E 135°08'0 0.0
2016-Jul-27 18:31N 34°09' E 135°08'0 0.0
2016-Jul-27 17:28N 34°09' E 135°08'0 0.0
2016-Jul-27 16:31N 34°09' E 135°08'0 0.0
2016-Jul-27 15:31N 34°09' E 135°08'0 0.0
2016-Jul-27 14:28N 34°09' E 135°08'0 0.1
2016-Jul-27 13:31N 34°09' E 135°08'0 0.0
2016-Jul-27 12:31N 34°09' E 135°08'0 0.0
2016-Jul-27 11:28N 34°09' E 135°08'0 0.0
2016-Jul-27 10:31N 34°09' E 135°08'0 0.0
2016-Jul-27 09:31N 34°09' E 135°08'0 0.0
2016-Jul-27 08:31N 34°09' E 135°08'0 0.0
2016-Jul-27 07:31N 34°09' E 135°08'0 0.0
2016-Jul-27 06:31N 34°09' E 135°08'0 0.0
2016-Jul-27 05:31N 34°09' E 135°08'8 8.7
2016-Jul-27 04:33N 34°02' E 135°02'1 0.0
2016-Jul-25 07:30N 34°01' E 135°02'8 1.5
2016-Jul-25 02:32N 34°07' E 135°07'0 0.0
2016-Jul-25 01:32N 34°07' E 135°07'0 0.0
2016-Jul-25 00:32N 34°07' E 135°07'0 0.4
2016-Jul-24 23:29N 34°08' E 135°07'5 5.8
2016-Jul-24 22:32N 34°13' E 135°09'0 0.0
2016-Jul-24 21:32N 34°13' E 135°09'0 0.0
2016-Jul-24 20:32N 34°13' E 135°09'0 0.0
2016-Jul-24 19:29N 34°13' E 135°09'0 0.0
2016-Jul-24 18:29N 34°13' E 135°09'0 0.0
2016-Jul-24 17:32N 34°13' E 135°09'0 0.0
2016-Jul-24 16:32N 34°13' E 135°09'0 0.0
2016-Jul-24 15:32N 34°13' E 135°09'0 0.0
2016-Jul-24 14:32N 34°13' E 135°09'0 0.0
2016-Jul-24 13:32N 34°13' E 135°09'0 0.0
2016-Jul-24 12:32N 34°13' E 135°09'0 0.0
2016-Jul-24 11:32N 34°13' E 135°09'0 0.0
2016-Jul-24 10:32N 34°13' E 135°09'0 0.0
2016-Jul-24 09:32N 34°13' E 135°09'0 0.0
2016-Jul-24 08:32N 34°13' E 135°09'0 0.0
2016-Jul-24 07:32N 34°13' E 135°09'0 0.0
2016-Jul-24 06:32N 34°13' E 135°09'0 0.0
2016-Jul-24 05:32N 34°13' E 135°09'0 0.0
2016-Jul-24 04:32N 34°13' E 135°09'0 0.0
2016-Jul-24 03:32N 34°13' E 135°09'0 0.0
2016-Jul-24 02:32N 34°13' E 135°09'0 0.0
2016-Jul-24 01:32N 34°13' E 135°09'0 0.0
2016-Jul-24 00:32N 34°13' E 135°09'0 0.0
2016-Jul-23 23:32N 34°13' E 135°09'2 2.0
2016-Jul-23 22:33N 34°12' E 135°06'1 0.6
2016-Jul-23 21:28N 34°12' E 135°06'0 0.1
2016-Jul-23 20:31N 34°12' E 135°06'0 0.0
2016-Jul-23 19:31N 34°12' E 135°06'241 6.2
2016-Jul-22 04:33N 35°27' E 139°45'2 1.6
2016-Jul-22 03:31N 35°29' E 139°46'2 2.4
2016-Jul-22 02:33N 35°31' E 139°46'0 0.0
2016-Jul-22 01:33N 35°31' E 139°46'0 0.0
2016-Jul-22 00:27N 35°31' E 139°46'0 0.0
2016-Jul-21 23:33N 35°31' E 139°46'0 0.0
2016-Jul-21 22:33N 35°31' E 139°46'0 0.0
2016-Jul-21 21:33N 35°31' E 139°46'4 4.4
2016-Jul-21 20:33N 35°28' E 139°42'5 5.4
2016-Jul-21 19:33N 35°29' E 139°49'0 0.0
2016-Jul-21 18:33N 35°29' E 139°49'0 0.0
2016-Jul-21 17:33N 35°29' E 139°49'0 0.0
2016-Jul-21 16:33N 35°29' E 139°49'0 0.0
2016-Jul-21 15:33N 35°29' E 139°49'0 0.0
2016-Jul-21 14:33N 35°29' E 139°49'0 0.0
2016-Jul-21 13:33N 35°29' E 139°49'3 3.4
2016-Jul-21 12:33N 35°30' E 139°53'7 5.5
2016-Jul-21 11:20N 35°29' E 140°01'0 0.0
2016-Jul-21 10:32N 35°29' E 140°01'0 0.0
2016-Jul-21 09:26N 35°29' E 140°01'0 0.0
2016-Jul-21 08:14N 35°29' E 140°01'0 0.0
2016-Jul-21 07:26N 35°29' E 140°01'0 0.0
2016-Jul-21 06:32N 35°29' E 140°01'0 0.0
2016-Jul-21 05:32N 35°29' E 140°01'5 4.9
2016-Jul-21 04:32N 35°29' E 139°55'0 0.0
2016-Jul-21 03:32N 35°29' E 139°55'0 0.0
2016-Jul-21 02:32N 35°29' E 139°55'0 0.0
2016-Jul-21 01:32N 35°29' E 139°55'0 0.0
2016-Jul-21 00:32N 35°29' E 139°55'0 0.0
2016-Jul-20 23:29N 35°29' E 139°55'0 0.0
2016-Jul-20 22:32N 35°29' E 139°55'0 0.0
2016-Jul-20 21:32N 35°29' E 139°55'0 0.0
2016-Jul-20 20:32N 35°29' E 139°55'0 0.0
2016-Jul-20 19:32N 35°29' E 139°55'0 0.0
2016-Jul-20 18:32N 35°29' E 139°55'0 0.0
2016-Jul-20 17:29N 35°29' E 139°55'6 6.8
2016-Jul-20 16:34N 35°30' E 139°47'1 1.4
2016-Jul-20 15:33N 35°31' E 139°46'0 0.0
2016-Jul-20 14:33N 35°31' E 139°46'0 0.0
2016-Jul-20 13:33N 35°31' E 139°46'0 0.0
2016-Jul-20 12:33N 35°31' E 139°46'0 0.0
2016-Jul-20 11:33N 35°31' E 139°46'0 0.0
2016-Jul-20 10:33N 35°31' E 139°46'0 0.0
2016-Jul-20 09:33N 35°31' E 139°46'0 0.0
2016-Jul-20 08:33N 35°31' E 139°46'0 0.0
2016-Jul-20 07:27N 35°31' E 139°46'0 0.0
2016-Jul-20 06:33N 35°31' E 139°46'0 0.0
2016-Jul-20 05:33N 35°31' E 139°46'0 0.0
2016-Jul-20 04:33N 35°31' E 139°46'0 0.4
2016-Jul-20 03:33N 35°31' E 139°46'7 7.4
2016-Jul-20 02:34N 35°24' E 139°44'0 0.1
2016-Jul-20 01:33N 35°24' E 139°44'0 0.0
2016-Jul-20 00:31N 35°24' E 139°44'0 0.0
2016-Jul-19 23:28N 35°24' E 139°44'0 0.0
2016-Jul-19 22:31N 35°24' E 139°44'0 0.0
2016-Jul-19 21:31N 35°24' E 139°44'0 0.0
2016-Jul-19 20:31N 35°24' E 139°44'0 0.1
2016-Jul-19 19:31N 35°24' E 139°44'0 0.0
2016-Jul-19 18:31N 35°24' E 139°44'0 0.0
2016-Jul-19 17:31N 35°24' E 139°44'0 0.0
2016-Jul-19 16:31N 35°24' E 139°44'0 0.0
2016-Jul-19 15:31N 35°24' E 139°44'0 0.0
2016-Jul-19 14:31N 35°24' E 139°44'0 0.0
2016-Jul-19 13:31N 35°24' E 139°44'0 0.1
2016-Jul-19 12:31N 35°24' E 139°44'0 0.0
2016-Jul-19 11:31N 35°24' E 139°44'0 0.1
2016-Jul-19 10:33N 35°24' E 139°44'9 9.0
2016-Jul-19 09:33N 35°15' E 139°47'1313.1
2016-Jul-19 08:33N 35°03' E 139°40'23811.6
2016-Jul-18 12:09N 34°01' E 135°02'711.9
2016-Jul-18 11:33N 34°08' E 135°05'  

Dump ship's entire track history